»·PEaware :: SWA429 KPHX-KELP

SWA429 :: KPHX-KELP

FLIGHT INFORMATION

Flight Status: Arrived
Operator:
Southwest Airlines
More flights by this operator :: More flights under this callsign
Pilot: Brad B. (8715)
Aircraft: BOEING 737-800
(B738)
More flights by this aircraft type
Origin: KPHX Phoenix Sky Harbor Intl
United States
Destination: KELP El Paso Intl
United States
More flights between these airports :: More routes between these airports
Route: +KATMN5 PHASE TEES MOLLY4
File this flight plan on PilotEdge
Remarks:
Altitude:
(Current/Filed)
37,000ft
Speed:
(Current/Filed)
453kts
Departed: 29-Sep-17 09:16 AM
Arrived: 29-Sep-17 10:06 AM
Distance/Time
Traveled:
300nm/0:49
Distance/Time
To Go:
Arrived

Flight Plot

Page will automatically refresh every two minutes.

Flight plan parsing failed; only flown route is shown


Map Options




Map Legend


Flown Route
Filed Route
Departure Airport
Arrival Airport
Navaid (VOR, NDB)
Fix

Horizontal Profiles

Position Reports

Time Latitude Longitude Heading Altitude Ground
Speed
29-Sep-17 08:58 33.433529 -111.996756 0 1142ft 0kts
29-Sep-17 08:59 33.433529 -111.996756 0 1142ft 0kts
29-Sep-17 09:00 33.433529 -111.996756 0 1142ft 0kts
29-Sep-17 09:01 33.433529 -111.996756 0 1142ft 0kts
29-Sep-17 09:02 33.433529 -111.996756 0 1142ft 0kts
29-Sep-17 09:03 33.433529 -111.996756 0 1142ft 0kts
29-Sep-17 09:04 33.433529 -111.996756 0 1142ft 0kts
29-Sep-17 09:05 33.433529 -111.996756 0 1142ft 0kts
29-Sep-17 09:06 33.433529 -111.996756 0 1142ft 0kts
29-Sep-17 09:07 33.433529 -111.996756 0 1142ft 0kts
29-Sep-17 09:08 33.433529 -111.996756 0 1142ft 0kts
29-Sep-17 09:09 33.433529 -111.996756 0 1142ft 0kts
29-Sep-17 09:10 33.433529 -111.996756 0 1142ft 0kts
29-Sep-17 09:11 33.433529 -111.996756 0 1142ft 0kts
29-Sep-17 09:12 33.433477 -111.996756 0 1142ft 1kts
29-Sep-17 09:13 33.432879 -111.996291 289 1142ft 2kts
29-Sep-17 09:14 33.432836 -111.995984 271 1142ft 0kts
29-Sep-17 09:15 33.432836 -111.995984 271 1142ft 0kts
29-Sep-17 09:16 33.432841 -111.996261 271 1142ft 11kts
29-Sep-17 09:17 33.432160 -112.003704 270 1142ft 27kts
29-Sep-17 09:18 33.432179 -112.013672 269 1142ft 33kts
29-Sep-17 09:19 33.432172 -112.025097 270 1143ft 40kts
29-Sep-17 09:20 33.431052 -112.018031 89 1143ft 111kts
29-Sep-17 09:21 33.431249 -111.959652 85 3080ft 209kts
29-Sep-17 09:22 33.433656 -111.879982 98 6155ft 259kts
29-Sep-17 09:23 33.389178 -111.806177 132 9621ft 285kts
29-Sep-17 09:24 33.328358 -111.736788 139 12263ft 334kts
29-Sep-17 09:25 33.253334 -111.653369 138 14197ft 388kts
29-Sep-17 09:26 33.171831 -111.562716 138 16773ft 410kts
29-Sep-17 09:27 33.086664 -111.467703 136 19128ft 428kts
29-Sep-17 09:28 33.014810 -111.350492 124 21276ft 446kts
29-Sep-17 09:29 32.946388 -111.225039 124 23146ft 459kts
29-Sep-17 09:30 32.875675 -111.096603 124 24837ft 469kts
29-Sep-17 09:31 32.803408 -110.964978 124 26353ft 479kts
29-Sep-17 09:32 32.729570 -110.831707 125 27707ft 488kts
29-Sep-17 09:33 32.656362 -110.695185 118 29146ft 492kts
29-Sep-17 09:34 32.613441 -110.540586 106 30789ft 495kts
29-Sep-17 09:35 32.578655 -110.383028 107 32309ft 494kts
29-Sep-17 09:36 32.543533 -110.224901 108 33684ft 495kts
29-Sep-17 09:37 32.508490 -110.067076 108 34900ft 496kts
29-Sep-17 09:38 32.472886 -109.909409 110 36033ft 496kts
29-Sep-17 09:39 32.437241 -109.751164 107 37091ft 497kts
29-Sep-17 09:40 32.416026 -109.588094 103 37176ft 500kts
29-Sep-17 09:41 32.395888 -109.424640 103 37189ft 501kts
29-Sep-17 09:42 32.374866 -109.261795 103 37201ft 501kts
29-Sep-17 09:43 32.354917 -109.098771 100 37217ft 503kts
29-Sep-17 09:44 32.338999 -108.933947 101 37235ft 504kts
29-Sep-17 09:45 32.322515 -108.769410 101 37255ft 505kts
29-Sep-17 09:46 32.306307 -108.604459 101 37275ft 506kts
29-Sep-17 09:47 32.289485 -108.439004 102 37290ft 506kts
29-Sep-17 09:48 32.272244 -108.273896 102 36469ft 504kts
29-Sep-17 09:49 32.253964 -108.110449 101 34200ft 502kts
29-Sep-17 09:50 32.235304 -107.948354 101 31486ft 490kts
29-Sep-17 09:51 32.217097 -107.791976 100 29105ft 473kts
29-Sep-17 09:52 32.199380 -107.640174 100 26725ft 459kts
29-Sep-17 09:53 32.181995 -107.493072 100 24382ft 447kts
29-Sep-17 09:54 32.165148 -107.349573 99 22063ft 436kts
29-Sep-17 09:55 32.148885 -107.210143 100 19960ft 423kts
29-Sep-17 09:56 32.132665 -107.076157 100 18197ft 399kts
29-Sep-17 09:57 32.115146 -106.949463 106 15845ft 381kts
29-Sep-17 09:58 32.089134 -106.833779 106 13372ft 350kts
29-Sep-17 09:59 32.055564 -106.733200 138 11550ft 310kts
29-Sep-17 10:00 31.982367 -106.692407 158 10275ft 283kts
29-Sep-17 10:01 31.909570 -106.662477 158 8567ft 270kts
29-Sep-17 10:02 31.843123 -106.642970 168 8019ft 228kts
29-Sep-17 10:03 31.780264 -106.633218 168 7990ft 223kts
29-Sep-17 10:04 31.722650 -106.624515 168 7999ft 207kts
29-Sep-17 10:05 31.678954 -106.594719 91 7231ft 197kts
29-Sep-17 10:06 31.705313 -106.534690 56 6918ft 211kts
29-Sep-17 10:07 31.738509 -106.487734 55 5937ft 161kts
29-Sep-17 10:08 31.765181 -106.450863 52 5111ft 148kts
29-Sep-17 10:09 31.791573 -106.413759 53 4305ft 146kts
29-Sep-17 10:10 31.811579 -106.385776 58 3966ft 37kts

Navigation Log

Ident Type
Flight plan parsing failed, navigation log unavailable